Главная страница
METAR-TAF:

METAR-TAF

Аэропорты :

Ситеки, Свазиленд

широта: 26-28-20S, долгота: 31-56-34E, высота над уровнем моря: 677 м

Текущие метеонаблюдения

Эта сводка был подготовлена 1 час и 0 минут назад, в 11:00 UTC
Штиль
Температура 34°C
Влажность 39%
Давление 1010 hPa

METAR: FDST 191100Z AUTO 00000KT //// // ////// 34/18 Q1010

Время: 14:00 (12:00 UTC)


TAF: отсутствует

Метеонаблюдения и прогнозы для более 4000 аэропортов (сводки METAR и TAF).

Имеющиеся станции представлены на карте желтыми и красными точками.

Чтобы увидеть название станции, наведите на нее мышь.

Затем щелкните, чтобы увидеть метеонаблюдения и метеопрогнозы.

Управление картой: чтобы увеличить масштаб, щелкните зеленые кнопки с черным крестиком; чтобы уменьшить масштаб, щелкните зеленую кнопку с тире; для просмотра соседних карт щелкайте зеленые стрелки.


METAR-TAF: